Time;durP1;ratioP1;P1;durP2;ratioP2;P2;SDS_P1;SDS_P2;PMS_P1;PMS_P2;Temp;Humidity;BMP_temperature;BMP_pressure;BME280_temperature;BME280_humidity;BME280_pressure;Samples;Min_cycle;Max_cycle;Signal;HPM_P1;HPM_P2
2022/03/09 00:00:46;;;;;;;178.88;106.97;;;0.90;1.00;;;;;;5037675;28;20057;-73
2022/03/09 00:03:15;;;;;;;196.95;119.43;;;0.90;1.00;;;;;;5019566;28;20204;-73
2022/03/09 00:05:43;;;;;;;199.82;117.72;;;0.90;1.00;;;;;;5037645;28;20099;-72
2022/03/09 00:08:11;;;;;;;218.10;122.20;;;0.90;1.00;;;;;;5037827;28;20068;-73
2022/03/09 00:10:38;;;;;;;211.00;119.97;;;0.80;1.00;;;;;;5020427;28;20136;-72
2022/03/09 00:13:07;;;;;;;301.05;160.52;;;0.70;1.00;;;;;;5020364;28;20049;-71
2022/03/09 00:15:35;;;;;;;242.90;139.15;;;0.60;1.00;;;;;;5021891;28;20060;-72
2022/03/09 00:18:03;;;;;;;231.23;134.25;;;0.60;1.00;;;;;;5020467;28;20050;-72
2022/03/09 00:20:31;;;;;;;267.00;152.50;;;0.50;50.70;;;;;;5020036;28;20511;-72
2022/03/09 00:22:58;;;;;;;249.65;145.25;;;0.60;99.90;;;;;;5038919;28;20390;-72
2022/03/09 00:25:26;;;;;;;248.60;141.15;;;0.50;99.90;;;;;;5020153;28;20136;-73
2022/03/09 00:27:54;;;;;;;244.13;145.15;;;0.50;99.90;;;;;;5019575;28;20068;-72
2022/03/09 00:30:23;;;;;;;238.63;133.90;;;0.40;99.90;;;;;;5037136;28;20056;-73
2022/03/09 00:32:51;;;;;;;237.68;138.70;;;0.40;99.90;;;;;;5018879;28;20509;-71
2022/03/09 00:35:18;;;;;;;234.82;132.23;;;0.40;99.90;;;;;;5037863;28;20399;-73
2022/03/09 00:37:46;;;;;;;218.23;124.88;;;0.40;99.90;;;;;;5041253;28;20048;-72
2022/03/09 00:40:14;;;;;;;180.20;105.45;;;0.40;99.90;;;;;;5042992;28;20042;-73
2022/03/09 00:42:41;;;;;;;184.88;104.78;;;0.40;99.90;;;;;;5059108;28;20057;-72
2022/03/09 00:45:10;;;;;;;187.45;106.88;;;0.30;99.90;;;;;;5044798;28;20041;-72
2022/03/09 00:47:39;;;;;;;230.25;127.40;;;0.20;99.90;;;;;;5038126;28;20049;-72
2022/03/09 00:50:08;;;;;;;227.15;130.30;;;0.20;1.00;;;;;;5019686;28;20432;-72
2022/03/09 00:52:36;;;;;;;261.38;146.15;;;0.20;1.00;;;;;;5018831;28;20458;-72
2022/03/09 00:55:04;;;;;;;303.00;163.50;;;0.20;1.00;;;;;;5019305;28;20492;-73
2022/03/09 00:57:32;;;;;;;277.63;151.07;;;0.20;1.00;;;;;;5019849;28;20412;-73
2022/03/09 01:00:00;;;;;;;294.30;158.30;;;0.30;1.00;;;;;;5019015;28;20050;-73
2022/03/09 01:02:28;;;;;;;293.23;154.07;;;0.30;1.00;;;;;;5036647;28;20480;-72
2022/03/09 01:04:57;;;;;;;273.38;144.18;;;0.30;1.00;;;;;;5019761;28;20057;-74
2022/03/09 01:07:24;;;;;;;296.77;157.02;;;0.30;1.00;;;;;;5019751;28;20041;-72
2022/03/09 01:09:53;;;;;;;257.63;137.88;;;0.20;1.00;;;;;;5019520;28;20050;-73
2022/03/09 01:12:20;;;;;;;251.65;131.35;;;0.20;1.00;;;;;;5021107;28;20042;-72
2022/03/09 01:14:49;;;;;;;240.68;131.10;;;0.10;1.00;;;;;;5024386;28;20085;-73
2022/03/09 01:17:17;;;;;;;241.18;134.15;;;0.10;99.90;;;;;;5018718;28;20404;-72
2022/03/09 01:19:45;;;;;;;238.18;131.93;;;0.10;99.90;;;;;;5018379;28;20407;-71
2022/03/09 01:22:13;;;;;;;222.38;124.32;;;0.10;99.90;;;;;;5015392;28;20069;-72
2022/03/09 01:24:41;;;;;;;221.68;122.45;;;0.10;1.00;;;;;;5016311;28;20050;-71
2022/03/09 01:27:09;;;;;;;209.98;121.22;;;0.10;1.00;;;;;;5015516;28;20104;-72
2022/03/09 01:29:36;;;;;;;215.20;121.32;;;0.00;1.00;;;;;;5015230;28;20068;-73
2022/03/09 01:32:05;;;;;;;200.13;111.45;;;0.10;1.00;;;;;;5016752;28;20052;-72
2022/03/09 01:34:33;;;;;;;206.55;112.50;;;0.10;99.90;;;;;;5016390;28;20129;-72
2022/03/09 01:37:01;;;;;;;206.55;111.50;;;0.10;99.90;;;;;;5016278;28;20050;-72
2022/03/09 01:39:30;;;;;;;186.23;103.30;;;0.10;1.00;;;;;;5015891;28;20378;-72
2022/03/09 01:41:57;;;;;;;185.88;102.65;;;0.20;99.90;;;;;;5020765;28;20042;-72
2022/03/09 01:44:26;;;;;;;185.82;100.32;;;0.20;99.90;;;;;;5021515;28;20148;-72
2022/03/09 01:46:55;;;;;;;179.48;97.43;;;0.30;99.90;;;;;;5014478;28;20046;-72
2022/03/09 01:49:24;;;;;;;167.50;94.28;;;0.30;99.90;;;;;;5014941;28;20050;-72
2022/03/09 01:51:54;;;;;;;168.13;97.53;;;0.30;99.90;;;;;;5016864;28;20042;-71
2022/03/09 01:54:22;;;;;;;173.52;100.03;;;0.30;1.00;;;;;;5016083;28;20084;-71
2022/03/09 01:56:52;;;;;;;168.93;95.25;;;0.30;1.00;;;;;;5016770;28;20054;-71
2022/03/09 01:59:20;;;;;;;157.80;88.80;;;0.30;1.00;;;;;;5016134;28;20088;-74
2022/03/09 02:01:48;;;;;;;154.73;87.80;;;0.40;1.00;;;;;;5015768;28;20046;-72
2022/03/09 02:04:15;;;;;;;151.90;86.70;;;0.40;1.00;;;;;;5013978;28;20145;-72
2022/03/09 02:06:43;;;;;;;145.10;80.65;;;0.30;1.00;;;;;;5015532;28;20129;-72
2022/03/09 02:11:58;;;;;;;144.48;81.60;;;0.10;1.00;;;;;;5015352;28;20521;-72
2022/03/09 02:14:27;;;;;;;147.57;82.50;;;0.00;99.90;;;;;;5015441;28;20049;-72
2022/03/09 02:16:55;;;;;;;141.13;80.72;;;-0.10;99.90;;;;;;5014197;28;20065;-71
2022/03/09 02:19:23;;;;;;;138.63;79.82;;;-0.20;99.90;;;;;;5014671;28;20116;-72
2022/03/09 02:21:56;;;;;;;144.52;80.85;;;-0.30;1.00;;;;;;5015760;28;20052;-72
2022/03/09 02:24:28;;;;;;;134.75;78.65;;;-0.30;1.00;;;;;;5034793;28;20037;-72
2022/03/09 02:26:55;;;;;;;139.23;81.05;;;-0.40;1.00;;;;;;5017800;28;20099;-72
2022/03/09 02:29:23;;;;;;;127.70;77.35;;;-0.40;7.70;;;;;;5035185;28;20041;-72
2022/03/09 02:31:50;;;;;;;148.82;90.65;;;-0.40;99.90;;;;;;5035121;28;20141;-72
2022/03/09 02:34:18;;;;;;;151.75;93.60;;;-0.30;1.00;;;;;;5035361;28;20041;-71
2022/03/09 02:36:45;;;;;;;136.20;86.30;;;-0.30;1.00;;;;;;5036028;28;20049;-70
2022/03/09 02:39:13;;;;;;;135.57;85.97;;;-0.30;99.90;;;;;;5036268;28;20068;-71
2022/03/09 02:41:42;;;;;;;145.80;87.32;;;-0.30;99.90;;;;;;5023636;28;20041;-72
2022/03/09 02:44:10;;;;;;;145.02;92.25;;;-0.30;1.00;;;;;;5036033;28;20569;-71
2022/03/09 02:46:37;;;;;;;152.20;98.38;;;-0.30;1.00;;;;;;5034413;28;20045;-72
2022/03/09 02:51:46;;;;;;;150.30;97.22;;;-0.30;1.00;;;;;;4973232;28;20062;-72
2022/03/09 02:54:13;;;;;;;167.80;103.97;;;-0.30;99.90;;;;;;4973326;28;20051;-71
2022/03/09 02:56:42;;;;;;;171.05;105.18;;;-0.20;1.00;;;;;;4973333;28;20071;-73
2022/03/09 02:59:10;;;;;;;175.30;106.03;;;-0.20;99.90;;;;;;4957285;28;20141;-72
2022/03/09 03:01:38;;;;;;;181.77;113.07;;;-0.20;1.00;;;;;;4973617;28;20063;-73
2022/03/09 03:04:07;;;;;;;173.18;106.22;;;-0.20;99.90;;;;;;4973295;28;20062;-72
2022/03/09 03:06:34;;;;;;;166.20;101.95;;;-0.20;99.90;;;;;;4971682;28;20133;-71
2022/03/09 03:09:02;;;;;;;175.25;106.93;;;-0.10;1.00;;;;;;4972268;28;20101;-71
2022/03/09 03:11:30;;;;;;;163.48;101.53;;;-0.10;1.00;;;;;;4956887;28;20070;-71
2022/03/09 03:13:59;;;;;;;176.73;107.38;;;-0.10;97.80;;;;;;4972860;28;20454;-72
2022/03/09 03:16:26;;;;;;;180.10;104.35;;;-0.10;99.90;;;;;;4973211;28;20513;-72
2022/03/09 03:18:54;;;;;;;172.18;98.80;;;-0.10;99.90;;;;;;4956989;28;20146;-73
2022/03/09 03:21:22;;;;;;;160.05;94.00;;;-0.10;99.90;;;;;;4956586;28;20047;-72
2022/03/09 03:23:49;;;;;;;156.23;87.93;;;-0.10;1.00;;;;;;5032759;28;20057;-72
2022/03/09 03:26:17;;;;;;;154.90;92.75;;;-0.20;1.00;;;;;;5016592;28;20045;-72
2022/03/09 03:28:44;;;;;;;166.80;97.35;;;-0.30;99.90;;;;;;5016912;28;20062;-73
2022/03/09 03:31:15;;;;;;;178.82;100.22;;;-0.30;99.90;;;;;;5035049;28;20071;-72
2022/03/09 03:33:42;;;;;;;174.55;100.20;;;-0.40;1.00;;;;;;5044330;28;20053;-72
2022/03/09 03:36:10;;;;;;;180.98;100.85;;;-0.40;1.00;;;;;;5054009;28;20045;-71
2022/03/09 03:38:38;;;;;;;166.93;94.28;;;-0.50;37.90;;;;;;5037730;28;20041;-71
2022/03/09 03:41:06;;;;;;;176.50;98.00;;;-0.60;1.00;;;;;;5037917;28;20060;-71
2022/03/09 03:43:34;;;;;;;158.13;92.60;;;-0.70;99.90;;;;;;5027393;28;20077;-72
2022/03/09 03:46:01;;;;;;;161.65;92.40;;;-0.70;1.00;;;;;;5016309;28;20053;-72
2022/03/09 03:48:30;;;;;;;162.02;94.53;;;-0.70;1.00;;;;;;5039920;28;20041;-71
2022/03/09 03:50:58;;;;;;;163.43;94.65;;;-0.80;1.00;;;;;;5045618;28;20069;-72
2022/03/09 03:53:25;;;;;;;145.60;87.60;;;-0.90;1.00;;;;;;5035113;28;20103;-72
2022/03/09 03:55:54;;;;;;;153.48;89.07;;;-0.90;99.90;;;;;;5038865;28;20054;-72
2022/03/09 03:58:21;;;;;;;151.52;87.28;;;-1.00;1.00;;;;;;5016207;28;20587;-72
2022/03/09 04:00:49;;;;;;;144.02;84.30;;;-1.10;1.00;;;;;;5033580;28;20041;-72
2022/03/09 04:03:16;;;;;;;161.60;89.43;;;-1.10;1.00;;;;;;5033459;28;20538;-72
2022/03/09 04:05:46;;;;;;;143.75;83.97;;;-1.10;1.00;;;;;;5015700;28;20133;-71
2022/03/09 04:08:13;;;;;;;137.25;82.93;;;-1.00;99.90;;;;;;5033809;28;20055;-72
2022/03/09 04:10:42;;;;;;;142.23;87.65;;;-1.00;99.90;;;;;;5016080;28;20034;-71
2022/03/09 04:13:10;;;;;;;150.05;90.97;;;-1.00;99.90;;;;;;5015548;28;20053;-72
2022/03/09 04:15:38;;;;;;;153.18;96.88;;;-1.10;99.90;;;;;;5015521;28;20064;-72
2022/03/09 04:18:07;;;;;;;150.23;96.05;;;-1.10;99.90;;;;;;5033625;28;20128;-72
2022/03/09 04:20:35;;;;;;;158.57;98.07;;;-1.20;99.90;;;;;;5034026;28;20551;-72
2022/03/09 04:23:08;;;;;;;149.73;95.47;;;-1.20;99.90;;;;;;5033146;28;20053;-72
2022/03/09 04:25:36;;;;;;;151.27;95.32;;;-1.30;99.90;;;;;;5027508;28;20072;-72
2022/03/09 04:28:05;;;;;;;149.57;95.38;;;-1.30;99.90;;;;;;5030822;28;20050;-72
2022/03/09 04:30:33;;;;;;;147.20;95.07;;;-1.30;99.90;;;;;;5030284;28;20042;-71
2022/03/09 04:33:01;;;;;;;141.30;91.35;;;-1.30;99.90;;;;;;5029680;28;20080;-72
2022/03/09 04:35:29;;;;;;;143.93;90.60;;;-1.30;99.90;;;;;;5031463;28;20045;-71
2022/03/09 04:37:56;;;;;;;130.93;84.60;;;-1.30;99.90;;;;;;5027848;28;20049;-72
2022/03/09 04:40:26;;;;;;;136.90;87.55;;;-1.20;99.90;;;;;;5033699;28;20463;-73
2022/03/09 04:42:53;;;;;;;131.63;85.80;;;-1.20;99.90;;;;;;5031720;28;20045;-72
2022/03/09 04:45:21;;;;;;;131.45;82.15;;;-1.20;99.90;;;;;;5052576;28;20084;-72
2022/03/09 04:47:49;;;;;;;121.88;79.75;;;-1.20;99.90;;;;;;5047933;28;20049;-72
2022/03/09 04:50:16;;;;;;;156.20;92.78;;;-1.20;99.90;;;;;;5030725;28;20041;-73
2022/03/09 04:52:44;;;;;;;129.32;78.03;;;-1.20;99.90;;;;;;5059824;28;20025;-71
2022/03/09 04:55:12;;;;;;;136.20;84.22;;;-1.30;99.90;;;;;;5036998;28;20052;-71
2022/03/09 04:57:42;;;;;;;134.32;86.07;;;-1.30;99.90;;;;;;5036872;28;20242;-72
2022/03/09 05:00:12;;;;;;;117.47;70.65;;;-1.30;99.90;;;;;;5019129;28;20049;-72
2022/03/09 05:02:39;;;;;;;93.15;57.28;;;-1.30;99.90;;;;;;5018932;28;20049;-73
2022/03/09 05:05:08;;;;;;;105.20;65.20;;;-1.30;99.90;;;;;;5036935;28;20054;-72
2022/03/09 05:07:39;;;;;;;98.10;59.50;;;-1.40;99.90;;;;;;5019198;28;20501;-72
2022/03/09 05:10:07;;;;;;;114.25;68.55;;;-1.40;99.90;;;;;;5018859;28;20439;-72
2022/03/09 05:12:35;;;;;;;145.02;84.50;;;-1.40;99.90;;;;;;5019215;28;20049;-72
2022/03/09 05:15:06;;;;;;;192.85;104.40;;;-1.30;99.90;;;;;;5023783;28;20493;-72
2022/03/09 05:17:34;;;;;;;236.13;126.60;;;-1.20;99.90;;;;;;5018515;28;20045;-72
2022/03/09 05:20:02;;;;;;;184.82;106.72;;;-1.20;99.90;;;;;;5029991;28;20060;-72
2022/03/09 05:22:29;;;;;;;172.02;103.93;;;-1.20;99.90;;;;;;5040920;23;20083;-78
2022/03/09 05:24:57;;;;;;;145.00;88.75;;;-1.10;99.90;;;;;;5045886;28;20063;-77
2022/03/09 05:27:27;;;;;;;147.60;88.25;;;-1.00;99.90;;;;;;5049673;28;20522;-78
2022/03/09 05:29:56;;;;;;;135.45;83.30;;;-1.00;99.90;;;;;;5048168;28;20041;-77
2022/03/09 05:32:25;;;;;;;134.05;81.10;;;-0.90;99.90;;;;;;5060787;28;20040;-77
2022/03/09 05:34:52;;;;;;;149.00;86.28;;;-0.90;99.90;;;;;;5043657;28;20146;-77
2022/03/09 05:37:22;;;;;;;160.45;92.60;;;-0.80;99.90;;;;;;5030286;28;20406;-76
2022/03/09 05:39:50;;;;;;;162.07;95.70;;;-0.80;99.90;;;;;;5037838;28;20041;-77
2022/03/09 05:42:18;;;;;;;162.52;95.80;;;-0.80;99.90;;;;;;5037001;28;20055;-78
2022/03/09 05:44:46;;;;;;;159.77;89.80;;;-0.80;99.90;;;;;;5020488;28;20079;-77
2022/03/09 05:47:13;;;;;;;161.05;89.72;;;-0.80;99.90;;;;;;5021848;28;20135;-77
2022/03/09 05:49:42;;;;;;;153.10;88.90;;;-0.80;99.90;;;;;;5024714;28;20489;-77
2022/03/09 05:52:10;;;;;;;157.20;91.32;;;-0.80;99.90;;;;;;5017698;28;20412;-77
2022/03/09 05:54:37;;;;;;;169.85;96.82;;;-0.70;99.90;;;;;;5021867;28;20136;-77
2022/03/09 05:57:05;;;;;;;170.48;95.95;;;-0.70;99.90;;;;;;5035769;28;20067;-78
2022/03/09 05:59:33;;;;;;;176.82;101.72;;;-0.60;99.90;;;;;;5023897;28;20044;-78
2022/03/09 06:02:00;;;;;;;173.15;98.18;;;-0.60;99.90;;;;;;5044051;28;20057;-77
2022/03/09 06:04:28;;;;;;;157.43;85.88;;;-0.60;99.90;;;;;;5029033;28;20059;-78
2022/03/09 06:06:57;;;;;;;158.93;83.85;;;-0.60;99.90;;;;;;5037077;28;20140;-77
2022/03/09 06:09:25;;;;;;;148.63;79.00;;;-0.60;99.90;;;;;;5056194;28;20045;-78
2022/03/09 06:11:52;;;;;;;153.80;78.90;;;-0.60;99.90;;;;;;5037454;28;20507;-78
2022/03/09 06:14:20;;;;;;;163.75;83.85;;;-0.60;99.90;;;;;;5036738;28;20069;-77
2022/03/09 06:16:47;;;;;;;176.52;86.45;;;-0.40;99.90;;;;;;5036805;28;20049;-77
2022/03/09 06:19:15;;;;;;;192.15;96.22;;;-0.40;99.90;;;;;;5044740;28;20097;-79
2022/03/09 06:21:43;;;;;;;211.68;104.03;;;-0.20;99.90;;;;;;5031404;28;20095;-77
2022/03/09 06:24:16;;;;;;;172.20;93.63;;;-0.20;99.90;;;;;;5036628;28;20060;-77
2022/03/09 06:26:45;;;;;;;205.75;103.35;;;-0.10;99.90;;;;;;5048979;28;20048;-77
2022/03/09 06:29:13;;;;;;;229.77;115.85;;;0.10;99.90;;;;;;5025801;28;20507;-77
2022/03/09 06:31:42;;;;;;;237.40;124.10;;;0.30;99.90;;;;;;5036474;28;20121;-78
2022/03/09 06:34:10;;;;;;;265.13;134.95;;;0.60;99.90;;;;;;5035824;28;20045;-78
2022/03/09 06:36:42;;;;;;;238.82;125.43;;;0.70;99.90;;;;;;5055746;28;20091;-77
2022/03/09 06:39:12;;;;;;;172.10;96.55;;;0.80;99.90;;;;;;5029706;28;20045;-78
2022/03/09 06:41:43;;;;;;;173.75;95.95;;;0.80;99.90;;;;;;5037530;28;20055;-77
2022/03/09 06:44:12;;;;;;;178.98;101.38;;;0.90;99.90;;;;;;5037905;28;20045;-78
2022/03/09 06:46:40;;;;;;;171.93;95.80;;;0.90;99.90;;;;;;5034407;28;20041;-78
2022/03/09 06:49:08;;;;;;;185.60;102.30;;;0.90;99.90;;;;;;5028024;28;20041;-78
2022/03/09 06:51:36;;;;;;;181.50;101.03;;;0.90;99.90;;;;;;5032438;28;20045;-77
2022/03/09 06:54:04;;;;;;;187.43;104.20;;;0.90;99.90;;;;;;5035923;28;20048;-77
2022/03/09 06:56:32;;;;;;;190.07;105.40;;;0.90;99.90;;;;;;5025591;28;20037;-77
2022/03/09 06:59:01;;;;;;;191.20;105.90;;;1.00;92.40;;;;;;5035977;28;20408;-78
2022/03/09 07:01:29;;;;;;;209.18;108.78;;;1.10;82.20;;;;;;5046453;28;20041;-78
2022/03/09 07:03:56;;;;;;;234.65;118.05;;;1.00;78.60;;;;;;5044241;28;20044;-77
2022/03/09 07:06:24;;;;;;;229.60;116.22;;;1.00;43.10;;;;;;5054649;28;20033;-78
2022/03/09 07:08:52;;;;;;;222.80;115.07;;;1.10;18.00;;;;;;5050573;28;20060;-79
2022/03/09 07:11:20;;;;;;;214.95;115.20;;;1.10;25.80;;;;;;5036389;28;20048;-77
2022/03/09 07:13:47;;;;;;;206.95;112.90;;;1.20;5.80;;;;;;5054823;28;20056;-78
2022/03/09 07:16:17;;;;;;;211.43;107.93;;;1.30;40.70;;;;;;5037439;28;20049;-78
2022/03/09 07:18:44;;;;;;;221.52;115.88;;;1.40;25.10;;;;;;5056235;28;20045;-78
2022/03/09 07:21:13;;;;;;;215.60;113.57;;;1.60;15.20;;;;;;5036935;28;20500;-78
2022/03/09 07:23:41;;;;;;;223.63;114.47;;;1.70;1.00;;;;;;5030765;28;20057;-77
2022/03/09 07:26:09;;;;;;;224.20;116.80;;;1.70;1.00;;;;;;5030673;28;20461;-77
2022/03/09 07:28:37;;;;;;;219.43;113.22;;;1.70;1.00;;;;;;5030700;28;20103;-77
2022/03/09 07:31:04;;;;;;;234.82;118.45;;;1.70;1.00;;;;;;5024973;28;20423;-78
2022/03/09 07:33:33;;;;;;;211.50;112.28;;;1.80;1.00;;;;;;5025089;28;20122;-77
2022/03/09 07:36:01;;;;;;;209.52;113.20;;;1.80;1.00;;;;;;5017737;28;20564;-79
2022/03/09 07:38:29;;;;;;;208.10;111.43;;;1.90;1.00;;;;;;5024778;28;20052;-77
2022/03/09 07:40:57;;;;;;;203.80;110.65;;;2.00;1.00;;;;;;5033131;28;20048;-77
2022/03/09 07:43:24;;;;;;;205.60;113.75;;;2.20;1.00;;;;;;5022075;28;20521;-77
2022/03/09 07:45:52;;;;;;;206.88;112.60;;;2.30;30.30;;;;;;5026906;28;20140;-77
2022/03/09 07:48:20;;;;;;;217.15;114.38;;;2.50;1.00;;;;;;5025890;28;20056;-79
2022/03/09 07:50:50;;;;;;;206.55;114.95;;;2.80;1.00;;;;;;5018480;28;20069;-77
2022/03/09 07:53:18;;;;;;;228.95;122.57;;;3.10;1.00;;;;;;5030666;28;20284;-78
2022/03/09 07:55:45;;;;;;;222.93;124.35;;;3.40;99.90;;;;;;5027883;28;20033;-78
2022/03/09 07:58:13;;;;;;;213.35;119.70;;;3.70;1.00;;;;;;5026302;28;20037;-76
2022/03/09 08:00:41;;;;;;;196.98;105.93;;;4.00;1.00;;;;;;5037801;28;20113;-77
2022/03/09 08:03:08;;;;;;;198.63;104.65;;;4.10;99.90;;;;;;5032002;28;20099;-77
2022/03/09 08:05:36;;;;;;;260.10;108.75;;;4.20;99.90;;;;;;5030482;28;20084;-77
2022/03/09 08:08:05;;;;;;;194.57;105.28;;;4.40;1.00;;;;;;5016278;28;20045;-76
2022/03/09 08:10:33;;;;;;;475.10;147.38;;;4.60;80.60;;;;;;5028223;28;20038;-78
2022/03/09 08:13:00;;;;;;;221.32;117.00;;;4.70;99.90;;;;;;5014353;28;20125;-78
2022/03/09 08:15:28;;;;;;;205.15;108.15;;;4.40;1.00;;;;;;5022757;28;20112;-76
2022/03/09 08:17:56;;;;;;;205.70;112.40;;;4.40;99.90;;;;;;5022397;28;20069;-77
2022/03/09 08:20:23;;;;;;;208.52;109.47;;;4.50;99.90;;;;;;5036668;28;20096;-77
2022/03/09 08:22:51;;;;;;;212.73;111.75;;;4.80;99.90;;;;;;5021077;28;20423;-77
2022/03/09 08:25:20;;;;;;;198.45;106.00;;;5.20;99.90;;;;;;5018931;28;20140;-76
2022/03/09 08:27:47;;;;;;;198.52;104.53;;;5.40;1.00;;;;;;5024896;28;20101;-76
2022/03/09 08:30:15;;;;;;;192.82;104.72;;;5.50;99.90;;;;;;5029256;28;20042;-77
2022/03/09 08:32:42;;;;;;;195.93;102.47;;;5.80;99.90;;;;;;5029961;28;20487;-77
2022/03/09 08:35:10;;;;;;;199.07;100.40;;;5.80;18.70;;;;;;5035705;28;20041;-76
2022/03/09 08:37:38;;;;;;;208.52;105.07;;;5.60;99.90;;;;;;5036701;28;20132;-76
2022/03/09 08:40:06;;;;;;;215.63;105.70;;;5.50;97.10;;;;;;5036659;28;20045;-77
2022/03/09 08:42:35;;;;;;;207.68;100.15;;;5.40;1.00;;;;;;5039347;28;20046;-76
2022/03/09 08:45:04;;;;;;;238.77;110.90;;;5.30;1.00;;;;;;5028159;28;20053;-78
2022/03/09 08:47:32;;;;;;;227.88;108.13;;;5.10;28.60;;;;;;5032874;28;20076;-77
2022/03/09 08:49:59;;;;;;;224.70;100.53;;;5.20;1.00;;;;;;5027310;28;20128;-78
2022/03/09 08:52:27;;;;;;;231.55;103.53;;;5.10;1.00;;;;;;5037426;28;20095;-78
2022/03/09 08:54:55;;;;;;;235.63;107.18;;;5.10;1.00;;;;;;5037768;28;20051;-78
2022/03/09 08:57:23;;;;;;;229.80;102.28;;;5.30;1.00;;;;;;5037222;28;20060;-77
2022/03/09 08:59:51;;;;;;;256.35;107.82;;;5.40;1.00;;;;;;5037242;28;20073;-78
2022/03/09 09:02:19;;;;;;;239.55;106.18;;;5.60;1.00;;;;;;5038437;28;20057;-78
2022/03/09 09:04:47;;;;;;;249.73;106.18;;;5.70;1.00;;;;;;5039426;28;20041;-77
2022/03/09 09:07:14;;;;;;;243.82;101.95;;;5.90;1.00;;;;;;5039250;28;20041;-77
2022/03/09 09:09:42;;;;;;;238.02;102.20;;;6.10;1.00;;;;;;5032891;28;20045;-78
2022/03/09 09:12:11;;;;;;;237.43;102.18;;;6.30;1.00;;;;;;5025726;28;20068;-77
2022/03/09 09:14:38;;;;;;;238.43;98.28;;;6.50;1.00;;;;;;5024654;28;20049;-80
2022/03/09 09:17:08;;;;;;;219.13;94.88;;;6.80;1.00;;;;;;5022431;28;20042;-78
2022/03/09 09:19:36;;;;;;;219.93;92.70;;;6.80;99.90;;;;;;5032329;28;20385;-79
2022/03/09 09:22:04;;;;;;;198.15;86.95;;;6.80;99.90;;;;;;5040825;28;20051;-78
2022/03/09 09:24:32;;;;;;;178.27;79.25;;;6.90;9.20;;;;;;5036740;28;20049;-78
2022/03/09 09:27:00;;;;;;;179.40;78.95;;;6.10;66.80;;;;;;5018811;28;20049;-77
2022/03/09 09:29:28;;;;;;;179.02;77.22;;;5.70;1.00;;;;;;5018095;28;20042;-76
2022/03/09 09:31:55;;;;;;;181.52;77.05;;;5.70;1.00;;;;;;5027327;28;20124;-78
2022/03/09 09:34:24;;;;;;;153.63;70.50;;;5.70;1.00;;;;;;5041821;28;20045;-78
2022/03/09 09:36:52;;;;;;;164.20;73.80;;;5.90;1.00;;;;;;5032534;28;20564;-77
2022/03/09 09:39:20;;;;;;;145.38;68.57;;;6.10;1.00;;;;;;5024202;28;20145;-77
2022/03/09 09:41:51;;;;;;;142.00;62.42;;;6.20;1.00;;;;;;5022856;28;20034;-78
2022/03/09 09:44:20;;;;;;;123.78;56.45;;;6.40;1.00;;;;;;5025741;28;20132;-76
2022/03/09 09:46:48;;;;;;;123.75;57.97;;;6.60;1.00;;;;;;5026823;28;20050;-78
2022/03/09 09:49:16;;;;;;;115.45;54.50;;;6.70;1.00;;;;;;5023871;28;20125;-79
2022/03/09 09:51:47;;;;;;;118.65;55.92;;;6.60;2.60;;;;;;5034284;28;20116;-78
2022/03/09 09:54:15;;;;;;;108.43;52.67;;;6.60;66.10;;;;;;5025717;28;20050;-79
2022/03/09 09:56:43;;;;;;;114.05;57.58;;;6.80;1.00;;;;;;5033968;28;20042;-78
2022/03/09 09:59:11;;;;;;;108.05;55.60;;;7.10;1.00;;;;;;5019079;28;20045;-79
2022/03/09 10:01:41;;;;;;;106.18;54.00;;;7.30;1.00;;;;;;5020221;28;20133;-78
2022/03/09 10:04:09;;;;;;;110.78;54.38;;;7.40;1.00;;;;;;5028142;28;20076;-78
2022/03/09 10:06:37;;;;;;;104.20;56.90;;;7.30;13.30;;;;;;5034564;28;20053;-79
2022/03/09 10:09:07;;;;;;;86.05;49.28;;;7.40;86.30;;;;;;5037243;28;20088;-78
2022/03/09 10:11:50;;;;;;;86.78;49.50;;;7.40;39.40;;;;;;5041656;28;20442;-77
2022/03/09 10:14:38;;;;;;;88.18;50.95;;;7.40;1.00;;;;;;5033586;28;20058;-79
2022/03/09 10:17:07;;;;;;;86.65;50.20;;;7.40;1.00;;;;;;5025090;28;20045;-78
2022/03/09 10:19:37;;;;;;;84.43;50.10;;;7.50;1.00;;;;;;5045684;28;20041;-78
2022/03/09 10:22:29;;;;;;;80.78;49.58;;;7.50;1.50;;;;;;5041538;28;20038;-77
2022/03/09 10:25:00;;;;;;;72.20;41.20;;;7.30;1.00;;;;;;5037199;28;20050;-77
2022/03/09 10:27:45;;;;;;;78.07;41.67;;;7.20;1.00;;;;;;5034418;28;20072;-77
2022/03/09 10:30:14;;;;;;;64.38;36.80;;;7.10;36.70;;;;;;5016889;28;20057;-78
2022/03/09 10:32:52;;;;;;;56.58;33.33;;;6.80;99.90;;;;;;5029998;28;20049;-77
2022/03/09 10:35:21;;;;;;;59.10;33.97;;;6.80;99.90;;;;;;5018210;28;20081;-79
2022/03/09 10:37:49;;;;;;;60.85;34.88;;;6.90;99.90;;;;;;5023769;28;20045;-78
2022/03/09 10:40:20;;;;;;;73.18;37.88;;;7.20;99.90;;;;;;5035593;28;20095;-78
2022/03/09 10:42:49;;;;;;;65.18;37.25;;;7.70;99.90;;;;;;5034224;28;20073;-77
2022/03/09 10:45:18;;;;;;;49.97;29.52;;;8.20;99.90;;;;;;5022482;28;20132;-77
2022/03/09 10:47:47;;;;;;;47.90;27.85;;;8.30;99.90;;;;;;5035770;28;20123;-77
2022/03/09 10:50:18;;;;;;;48.28;26.58;;;8.00;1.00;;;;;;5023906;28;20057;-76
2022/03/09 10:52:53;;;;;;;37.95;24.30;;;8.20;99.90;;;;;;5015768;28;20064;-78
2022/03/09 10:55:28;;;;;;;48.28;25.88;;;8.50;1.00;;;;;;5015765;28;20130;-77
2022/03/09 10:58:09;;;;;;;45.08;25.85;;;8.70;1.00;;;;;;5015337;28;20478;-76
2022/03/09 11:00:38;;;;;;;43.65;24.98;;;8.80;1.00;;;;;;5018797;28;20058;-77
2022/03/09 11:03:07;;;;;;;45.72;24.30;;;8.50;1.00;;;;;;5014357;28;20054;-77
2022/03/09 11:05:35;;;;;;;25.80;17.38;;;8.50;99.90;;;;;;5020635;28;20396;-78
2022/03/09 11:08:04;;;;;;;36.40;19.98;;;8.20;99.90;;;;;;5033249;28;20401;-77
2022/03/09 11:10:33;;;;;;;29.92;18.15;;;8.30;99.90;;;;;;5032963;28;20176;-77
2022/03/09 11:13:02;;;;;;;27.30;16.83;;;8.70;99.90;;;;;;5023789;28;20061;-77
2022/03/09 11:15:30;;;;;;;26.10;16.13;;;8.60;99.90;;;;;;5023762;28;20045;-78
2022/03/09 11:17:59;;;;;;;33.17;18.95;;;8.70;99.90;;;;;;5026838;28;20060;-77
2022/03/09 11:20:26;;;;;;;32.60;17.98;;;8.70;99.90;;;;;;5026701;28;20444;-76
2022/03/09 11:22:54;;;;;;;33.30;18.30;;;8.50;1.00;;;;;;5013708;28;20118;-76
2022/03/09 11:25:24;;;;;;;34.75;21.27;;;8.40;99.90;;;;;;5018275;28;20128;-77
2022/03/09 11:27:55;;;;;;;32.88;19.48;;;8.40;99.90;;;;;;5027866;28;20050;-77
2022/03/09 11:30:28;;;;;;;26.58;15.70;;;8.60;99.90;;;;;;5015118;28;20045;-76
2022/03/09 11:32:57;;;;;;;27.67;16.42;;;8.30;99.90;;;;;;5017145;28;20440;-77
2022/03/09 11:35:36;;;;;;;25.70;14.43;;;8.50;1.00;;;;;;5015339;28;20351;-76
2022/03/09 11:38:24;;;;;;;28.40;16.27;;;8.40;1.00;;;;;;5024947;28;20041;-76
2022/03/09 11:41:16;;;;;;;22.35;14.30;;;8.30;1.00;;;;;;5033746;28;20052;-77
2022/03/09 11:43:46;;;;;;;24.83;14.82;;;8.60;99.90;;;;;;5023878;28;20053;-78
2022/03/09 11:46:14;;;;;;;27.60;16.70;;;8.70;99.90;;;;;;5032231;28;20048;-77
2022/03/09 11:48:53;;;;;;;26.65;16.17;;;8.80;99.90;;;;;;5022648;28;20064;-76
2022/03/09 11:51:21;;;;;;;29.83;15.95;;;8.70;1.00;;;;;;5034938;28;20496;-76
2022/03/09 11:53:52;;;;;;;26.70;15.82;;;8.80;1.00;;;;;;5032755;28;20125;-77
2022/03/09 11:56:29;;;;;;;25.05;15.30;;;8.80;1.00;;;;;;5021393;28;20042;-78
2022/03/09 11:59:18;;;;;;;21.83;15.07;;;8.40;1.00;;;;;;5017767;28;20192;-78
2022/03/09 12:02:14;;;;;;;21.73;14.45;;;8.30;1.00;;;;;;5022641;28;20038;-78
2022/03/09 12:04:59;;;;;;;23.50;13.70;;;8.50;1.00;;;;;;5017648;28;20137;-77
2022/03/09 12:07:58;;;;;;;23.98;13.93;;;8.60;1.00;;;;;;5019175;28;20044;-77
2022/03/09 12:10:59;;;;;;;19.88;14.38;;;8.70;35.00;;;;;;5021539;28;20060;-77
2022/03/09 12:13:35;;;;;;;24.95;16.13;;;8.60;99.90;;;;;;5036548;28;20051;-78
2022/03/09 12:16:26;;;;;;;31.75;17.75;;;8.50;1.00;;;;;;5044876;28;20045;-78
2022/03/09 12:19:08;;;;;;;36.42;20.10;;;8.30;99.90;;;;;;5032746;28;20132;-76
2022/03/09 12:22:05;;;;;;;26.00;16.45;;;8.40;1.00;;;;;;5031296;28;20490;-78
2022/03/09 12:24:36;;;;;;;27.50;17.30;;;8.40;99.90;;;;;;5020697;28;20053;-77
2022/03/09 12:27:26;;;;;;;26.70;16.60;;;8.60;1.00;;;;;;5019634;28;20121;-77
2022/03/09 12:29:54;;;;;;;35.78;17.35;;;8.80;1.00;;;;;;5018159;28;20124;-78
2022/03/09 12:32:23;;;;;;;22.33;15.75;;;8.70;99.90;;;;;;5031254;28;20041;-77
2022/03/09 12:34:52;;;;;;;26.08;14.70;;;8.60;1.00;;;;;;5036081;28;20149;-77
2022/03/09 12:37:24;;;;;;;26.05;15.32;;;8.50;1.00;;;;;;5037843;28;20049;-78
2022/03/09 12:39:54;;;;;;;23.25;15.68;;;8.50;1.00;;;;;;5036665;28;20144;-77
2022/03/09 12:42:23;;;;;;;23.55;14.63;;;8.70;99.90;;;;;;5029064;28;20045;-78